sensor_id;sensor_type;location;lat;lon;timestamp;temperature;humidity
73833;SHT30;62179;48.444;-4.464;2022-08-21T00:01:11;18.28;72.87
73833;SHT30;62179;48.444;-4.464;2022-08-21T00:03:39;18.35;72.94
73833;SHT30;62179;48.444;-4.464;2022-08-21T00:06:05;18.36;72.85
73833;SHT30;62179;48.444;-4.464;2022-08-21T00:08:30;18.41;72.98
73833;SHT30;62179;48.444;-4.464;2022-08-21T00:10:56;18.42;72.25
73833;SHT30;62179;48.444;-4.464;2022-08-21T00:13:21;18.46;72.18
73833;SHT30;62179;48.444;-4.464;2022-08-21T00:15:47;18.51;71.82
73833;SHT30;62179;48.444;-4.464;2022-08-21T00:18:14;18.52;71.64
73833;SHT30;62179;48.444;-4.464;2022-08-21T00:20:41;18.56;71.53
73833;SHT30;62179;48.444;-4.464;2022-08-21T00:23:07;18.60;71.40
73833;SHT30;62179;48.444;-4.464;2022-08-21T00:25:33;18.59;71.34
73833;SHT30;62179;48.444;-4.464;2022-08-21T00:27:59;18.65;71.40
73833;SHT30;62179;48.444;-4.464;2022-08-21T00:30:25;18.67;71.39
73833;SHT30;62179;48.444;-4.464;2022-08-21T00:32:52;18.70;71.24
73833;SHT30;62179;48.444;-4.464;2022-08-21T00:35:26;18.72;71.18
73833;SHT30;62179;48.444;-4.464;2022-08-21T00:37:51;18.75;71.03
73833;SHT30;62179;48.444;-4.464;2022-08-21T00:40:21;18.77;70.92
73833;SHT30;62179;48.444;-4.464;2022-08-21T00:42:47;18.79;70.88
73833;SHT30;62179;48.444;-4.464;2022-08-21T00:45:13;18.79;70.84
73833;SHT30;62179;48.444;-4.464;2022-08-21T00:47:39;18.80;70.93
73833;SHT30;62179;48.444;-4.464;2022-08-21T00:50:07;18.85;70.79
73833;SHT30;62179;48.444;-4.464;2022-08-21T00:52:35;18.83;70.70
73833;SHT30;62179;48.444;-4.464;2022-08-21T00:55:02;18.83;70.94
73833;SHT30;62179;48.444;-4.464;2022-08-21T00:57:36;18.85;70.83
73833;SHT30;62179;48.444;-4.464;2022-08-21T01:00:07;18.86;70.69
73833;SHT30;62179;48.444;-4.464;2022-08-21T01:02:33;18.87;70.86
73833;SHT30;62179;48.444;-4.464;2022-08-21T01:04:59;18.86;71.02
73833;SHT30;62179;48.444;-4.464;2022-08-21T01:07:25;18.87;70.83
73833;SHT30;62179;48.444;-4.464;2022-08-21T09:43:18;20.50;77.91
73833;SHT30;62179;48.444;-4.464;2022-08-21T09:45:47;20.54;77.66
73833;SHT30;62179;48.444;-4.464;2022-08-21T09:48:24;20.57;77.39
73833;SHT30;62179;48.444;-4.464;2022-08-21T09:50:51;20.60;76.73
73833;SHT30;62179;48.444;-4.464;2022-08-21T09:53:25;20.53;76.77
73833;SHT30;62179;48.444;-4.464;2022-08-21T09:55:58;20.58;76.93
73833;SHT30;62179;48.444;-4.464;2022-08-21T09:58:46;20.58;76.32
73833;SHT30;62179;48.444;-4.464;2022-08-21T10:01:17;20.61;76.99
73833;SHT30;62179;48.444;-4.464;2022-08-21T10:03:44;20.61;76.25
73833;SHT30;62179;48.444;-4.464;2022-08-21T10:06:22;20.61;77.65
73833;SHT30;62179;48.444;-4.464;2022-08-21T10:08:48;20.58;76.39
73833;SHT30;62179;48.444;-4.464;2022-08-21T10:11:15;20.54;76.60
73833;SHT30;62179;48.444;-4.464;2022-08-21T10:14:56;20.50;76.71
73833;SHT30;62179;48.444;-4.464;2022-08-21T10:17:00;20.47;77.61
73833;SHT30;62179;48.444;-4.464;2022-08-21T10:19:48;20.48;77.33
73833;SHT30;62179;48.444;-4.464;2022-08-21T10:25:38;20.61;76.95
73833;SHT30;62179;48.444;-4.464;2022-08-21T10:31:00;20.72;76.58
73833;SHT30;62179;48.444;-4.464;2022-08-21T10:47:42;21.05;76.18
73833;SHT30;62179;48.444;-4.464;2022-08-21T11:01:53;21.08;75.61
73833;SHT30;62179;48.444;-4.464;2022-08-21T11:07:21;21.01;76.29
73833;SHT30;62179;48.444;-4.464;2022-08-21T11:09:49;21.03;76.11
73833;SHT30;62179;48.444;-4.464;2022-08-21T11:12:44;21.06;76.30
73833;SHT30;62179;48.444;-4.464;2022-08-21T11:17:54;21.11;76.40
73833;SHT30;62179;48.444;-4.464;2022-08-21T11:20:29;21.15;76.64
73833;SHT30;62179;48.444;-4.464;2022-08-21T11:23:05;21.15;76.20
73833;SHT30;62179;48.444;-4.464;2022-08-21T11:25:40;21.09;76.98
73833;SHT30;62179;48.444;-4.464;2022-08-21T11:28:10;21.03;76.96
73833;SHT30;62179;48.444;-4.464;2022-08-21T11:36:45;20.85;78.06
73833;SHT30;62179;48.444;-4.464;2022-08-21T11:42:14;20.68;78.14
73833;SHT30;62179;48.444;-4.464;2022-08-21T11:50:26;20.82;79.27
73833;SHT30;62179;48.444;-4.464;2022-08-21T11:52:59;20.85;78.72
73833;SHT30;62179;48.444;-4.464;2022-08-21T11:55:34;20.91;78.21
73833;SHT30;62179;48.444;-4.464;2022-08-21T11:58:06;20.92;78.63
73833;SHT30;62179;48.444;-4.464;2022-08-21T12:01:12;20.99;79.41
73833;SHT30;62179;48.444;-4.464;2022-08-21T12:03:34;21.15;79.18
73833;SHT30;62179;48.444;-4.464;2022-08-21T12:06:05;21.32;77.80
73833;SHT30;62179;48.444;-4.464;2022-08-21T12:08:40;21.45;77.54
73833;SHT30;62179;48.444;-4.464;2022-08-21T12:16:39;21.76;76.11
73833;SHT30;62179;48.444;-4.464;2022-08-21T12:19:06;21.80;76.82
73833;SHT30;62179;48.444;-4.464;2022-08-21T14:58:01;22.48;69.41
73833;SHT30;62179;48.444;-4.464;2022-08-21T15:00:26;22.46;69.13
73833;SHT30;62179;48.444;-4.464;2022-08-21T15:02:52;22.44;68.66
73833;SHT30;62179;48.444;-4.464;2022-08-21T15:05:18;22.45;68.65
73833;SHT30;62179;48.444;-4.464;2022-08-21T15:07:43;22.39;68.46
73833;SHT30;62179;48.444;-4.464;2022-08-21T15:10:10;22.38;69.29
73833;SHT30;62179;48.444;-4.464;2022-08-21T15:12:36;22.38;68.50
73833;SHT30;62179;48.444;-4.464;2022-08-21T15:15:02;22.38;69.56
73833;SHT30;62179;48.444;-4.464;2022-08-21T15:17:29;22.44;69.32
73833;SHT30;62179;48.444;-4.464;2022-08-21T15:19:54;22.46;68.30
73833;SHT30;62179;48.444;-4.464;2022-08-21T15:22:20;22.46;69.73
73833;SHT30;62179;48.444;-4.464;2022-08-21T15:24:45;22.49;68.95
73833;SHT30;62179;48.444;-4.464;2022-08-21T15:27:12;22.58;68.76
73833;SHT30;62179;48.444;-4.464;2022-08-21T15:29:38;22.67;68.73
73833;SHT30;62179;48.444;-4.464;2022-08-21T15:32:21;22.72;68.49
73833;SHT30;62179;48.444;-4.464;2022-08-21T15:34:49;22.72;68.82
73833;SHT30;62179;48.444;-4.464;2022-08-21T15:37:15;22.73;68.88
73833;SHT30;62179;48.444;-4.464;2022-08-21T15:39:40;22.72;69.06
73833;SHT30;62179;48.444;-4.464;2022-08-21T15:42:06;22.73;68.99
73833;SHT30;62179;48.444;-4.464;2022-08-21T15:44:32;22.67;68.78
73833;SHT30;62179;48.444;-4.464;2022-08-21T15:46:59;22.65;69.39
73833;SHT30;62179;48.444;-4.464;2022-08-21T15:49:25;22.65;69.50
73833;SHT30;62179;48.444;-4.464;2022-08-21T15:51:51;22.59;68.77
73833;SHT30;62179;48.444;-4.464;2022-08-21T15:54:17;22.52;69.00
73833;SHT30;62179;48.444;-4.464;2022-08-21T15:56:44;22.49;69.76
73833;SHT30;62179;48.444;-4.464;2022-08-21T15:59:19;22.44;69.72
73833;SHT30;62179;48.444;-4.464;2022-08-21T16:01:51;22.39;69.74
73833;SHT30;62179;48.444;-4.464;2022-08-21T16:04:27;22.32;70.26
73833;SHT30;62179;48.444;-4.464;2022-08-21T16:06:53;22.28;70.12
73833;SHT30;62179;48.444;-4.464;2022-08-21T16:09:19;22.24;69.95
73833;SHT30;62179;48.444;-4.464;2022-08-21T16:11:45;22.18;70.03
73833;SHT30;62179;48.444;-4.464;2022-08-21T16:14:12;22.12;70.52
73833;SHT30;62179;48.444;-4.464;2022-08-21T16:16:39;22.14;70.52
73833;SHT30;62179;48.444;-4.464;2022-08-21T16:19:04;22.12;70.51
73833;SHT30;62179;48.444;-4.464;2022-08-21T16:21:34;22.05;71.37
73833;SHT30;62179;48.444;-4.464;2022-08-21T16:24:00;22.08;71.54
73833;SHT30;62179;48.444;-4.464;2022-08-21T16:26:26;22.05;71.16
73833;SHT30;62179;48.444;-4.464;2022-08-21T16:28:54;22.00;71.59
73833;SHT30;62179;48.444;-4.464;2022-08-21T16:31:22;21.96;71.60
73833;SHT30;62179;48.444;-4.464;2022-08-21T16:33:50;21.94;71.94
73833;SHT30;62179;48.444;-4.464;2022-08-21T16:36:17;21.94;72.32
73833;SHT30;62179;48.444;-4.464;2022-08-21T16:38:42;21.88;72.84
73833;SHT30;62179;48.444;-4.464;2022-08-21T16:41:11;21.87;72.31
73833;SHT30;62179;48.444;-4.464;2022-08-21T16:43:39;21.83;72.66
73833;SHT30;62179;48.444;-4.464;2022-08-21T16:46:05;21.78;72.86
73833;SHT30;62179;48.444;-4.464;2022-08-21T16:48:31;21.80;72.95
73833;SHT30;62179;48.444;-4.464;2022-08-21T16:50:57;21.80;73.01
73833;SHT30;62179;48.444;-4.464;2022-08-21T16:53:23;21.71;73.20
73833;SHT30;62179;48.444;-4.464;2022-08-21T16:55:50;21.71;73.43
73833;SHT30;62179;48.444;-4.464;2022-08-21T16:58:28;21.69;73.44
73833;SHT30;62179;48.444;-4.464;2022-08-21T17:00:54;21.69;73.66
73833;SHT30;62179;48.444;-4.464;2022-08-21T17:03:21;21.67;73.93
73833;SHT30;62179;48.444;-4.464;2022-08-21T17:05:49;21.70;74.06
73833;SHT30;62179;48.444;-4.464;2022-08-21T17:08:17;21.69;73.99
73833;SHT30;62179;48.444;-4.464;2022-08-21T17:10:46;21.60;74.19
73833;SHT30;62179;48.444;-4.464;2022-08-21T17:13:12;21.59;74.35
73833;SHT30;62179;48.444;-4.464;2022-08-21T17:15:38;21.60;74.45
73833;SHT30;62179;48.444;-4.464;2022-08-21T17:18:07;21.57;74.27
73833;SHT30;62179;48.444;-4.464;2022-08-21T17:20:34;21.56;74.89
73833;SHT30;62179;48.444;-4.464;2022-08-21T17:22:59;21.54;75.00
73833;SHT30;62179;48.444;-4.464;2022-08-21T17:25:25;21.56;75.14
73833;SHT30;62179;48.444;-4.464;2022-08-21T17:27:52;21.53;75.28
73833;SHT30;62179;48.444;-4.464;2022-08-21T17:30:18;21.54;75.40
73833;SHT30;62179;48.444;-4.464;2022-08-21T17:32:45;21.54;75.14
73833;SHT30;62179;48.444;-4.464;2022-08-21T17:35:12;21.47;75.15
73833;SHT30;62179;48.444;-4.464;2022-08-21T17:37:39;21.46;75.25
73833;SHT30;62179;48.444;-4.464;2022-08-21T17:40:06;21.43;75.32
73833;SHT30;62179;48.444;-4.464;2022-08-21T17:42:32;21.39;75.64
73833;SHT30;62179;48.444;-4.464;2022-08-21T17:44:58;21.35;75.78
73833;SHT30;62179;48.444;-4.464;2022-08-21T17:47:24;21.26;75.97
73833;SHT30;62179;48.444;-4.464;2022-08-21T17:49:49;21.23;76.37
73833;SHT30;62179;48.444;-4.464;2022-08-21T17:52:15;21.22;76.55
73833;SHT30;62179;48.444;-4.464;2022-08-21T17:54:40;21.15;76.87
73833;SHT30;62179;48.444;-4.464;2022-08-21T17:57:07;21.15;77.10
73833;SHT30;62179;48.444;-4.464;2022-08-21T17:59:34;21.11;76.97
73833;SHT30;62179;48.444;-4.464;2022-08-21T18:01:59;21.13;77.17
73833;SHT30;62179;48.444;-4.464;2022-08-21T18:04:28;21.09;77.18
73833;SHT30;62179;48.444;-4.464;2022-08-21T18:06:55;21.11;77.33
73833;SHT30;62179;48.444;-4.464;2022-08-21T18:09:21;21.08;77.54
73833;SHT30;62179;48.444;-4.464;2022-08-21T18:11:54;21.09;77.66
73833;SHT30;62179;48.444;-4.464;2022-08-21T18:14:27;21.05;77.41
73833;SHT30;62179;48.444;-4.464;2022-08-21T18:16:54;21.05;77.61
73833;SHT30;62179;48.444;-4.464;2022-08-21T18:19:21;21.03;77.91
73833;SHT30;62179;48.444;-4.464;2022-08-21T18:21:49;21.02;78.02
73833;SHT30;62179;48.444;-4.464;2022-08-21T18:24:15;21.01;78.10
73833;SHT30;62179;48.444;-4.464;2022-08-21T18:26:42;20.99;78.13
73833;SHT30;62179;48.444;-4.464;2022-08-21T18:29:10;20.95;78.52
73833;SHT30;62179;48.444;-4.464;2022-08-21T18:31:37;20.94;78.60
73833;SHT30;62179;48.444;-4.464;2022-08-21T18:36:51;20.90;78.93
73833;SHT30;62179;48.444;-4.464;2022-08-21T18:39:17;20.94;79.14
73833;SHT30;62179;48.444;-4.464;2022-08-21T18:41:44;20.90;79.24
73833;SHT30;62179;48.444;-4.464;2022-08-21T18:44:11;20.90;79.66
73833;SHT30;62179;48.444;-4.464;2022-08-21T18:46:37;20.87;79.59
73833;SHT30;62179;48.444;-4.464;2022-08-21T18:49:02;20.85;79.96
73833;SHT30;62179;48.444;-4.464;2022-08-21T18:51:28;20.84;79.97
73833;SHT30;62179;48.444;-4.464;2022-08-21T18:53:53;20.85;80.09
73833;SHT30;62179;48.444;-4.464;2022-08-21T18:56:19;20.84;80.43
73833;SHT30;62179;48.444;-4.464;2022-08-21T18:58:45;20.84;80.37
73833;SHT30;62179;48.444;-4.464;2022-08-21T19:01:11;20.81;80.50
73833;SHT30;62179;48.444;-4.464;2022-08-21T19:03:37;20.84;80.54
73833;SHT30;62179;48.444;-4.464;2022-08-21T19:06:03;20.81;80.74
73833;SHT30;62179;48.444;-4.464;2022-08-21T19:08:28;20.82;80.74
73833;SHT30;62179;48.444;-4.464;2022-08-21T19:10:55;20.75;81.21
73833;SHT30;62179;48.444;-4.464;2022-08-21T19:13:22;20.75;81.11
73833;SHT30;62179;48.444;-4.464;2022-08-21T19:15:50;20.74;81.33
73833;SHT30;62179;48.444;-4.464;2022-08-21T19:18:22;20.71;81.31
73833;SHT30;62179;48.444;-4.464;2022-08-21T19:20:49;20.74;81.26
73833;SHT30;62179;48.444;-4.464;2022-08-21T19:23:16;20.74;81.45
73833;SHT30;62179;48.444;-4.464;2022-08-21T19:25:44;20.72;81.50
73833;SHT30;62179;48.444;-4.464;2022-08-21T19:28:14;20.71;81.79
73833;SHT30;62179;48.444;-4.464;2022-08-21T19:30:43;20.68;81.68
73833;SHT30;62179;48.444;-4.464;2022-08-21T19:33:12;20.65;81.74
73833;SHT30;62179;48.444;-4.464;2022-08-21T19:35:40;20.65;81.85
73833;SHT30;62179;48.444;-4.464;2022-08-21T19:38:05;20.64;81.76
73833;SHT30;62179;48.444;-4.464;2022-08-21T19:40:30;20.64;81.87
